createdAt,value
2019-05-12T00:04:39.605Z,1.47
2019-05-12T00:09:42.890Z,1.10
2019-05-12T00:14:48.394Z,1.37
2019-05-12T00:19:51.202Z,1.30
2019-05-12T00:24:54.521Z,1.00
2019-05-12T00:29:57.945Z,1.40
2019-05-12T00:35:01.193Z,1.20
2019-05-12T00:40:05.274Z,1.10
2019-05-12T00:45:08.818Z,0.73
2019-05-12T00:50:12.107Z,1.33
2019-05-12T00:55:15.403Z,1.10
2019-05-12T01:00:19.520Z,1.10
2019-05-12T01:05:22.876Z,1.37
2019-05-12T01:10:28.316Z,1.50
2019-05-12T01:15:31.222Z,1.20
2019-05-12T01:20:34.547Z,1.30
2019-05-12T01:25:39.600Z,1.13
2019-05-12T01:30:43.248Z,1.53
2019-05-12T01:35:48.273Z,1.43
2019-05-12T01:40:51.705Z,1.30
2019-05-12T01:45:55.004Z,1.33
2019-05-12T01:50:58.363Z,1.07
2019-05-12T01:56:01.661Z,1.47
2019-05-12T02:01:05.069Z,1.73
2019-05-12T02:06:08.505Z,1.43
2019-05-12T02:11:29.560Z,1.57
2019-05-12T02:16:33.113Z,2.00
2019-05-12T02:21:38.191Z,1.80
2019-05-12T02:26:41.508Z,2.70
2019-05-12T02:31:44.807Z,1.67
2019-05-12T02:36:48.094Z,2.27
2019-05-12T02:41:54.049Z,3.27
2019-05-12T02:46:56.420Z,2.13
2019-05-12T02:52:00.045Z,2.13
2019-05-12T02:57:04.771Z,2.83
2019-05-12T03:02:09.550Z,2.40
2019-05-12T03:07:15.263Z,2.53
2019-05-12T03:12:18.142Z,2.90
2019-05-12T03:17:24.870Z,2.20
2019-05-12T03:22:26.472Z,3.23
2019-05-12T03:27:29.819Z,2.80
2019-05-12T03:32:37.881Z,2.30
2019-05-12T03:37:38.211Z,2.53
2019-05-12T03:42:44.168Z,2.30
2019-05-12T03:47:46.510Z,1.90
2019-05-12T03:52:49.906Z,1.75
2019-05-12T03:57:55.127Z,1.83
2019-05-12T04:02:58.204Z,2.20
2019-05-12T04:08:05.106Z,2.30
2019-05-12T04:13:06.638Z,2.27
2019-05-12T04:18:09.962Z,2.60
2019-05-12T04:23:15.356Z,2.70
2019-05-12T04:28:18.311Z,2.27
2019-05-12T04:33:21.607Z,2.60
2019-05-12T04:38:25.112Z,2.43
2019-05-12T04:43:28.357Z,2.57
2019-05-12T04:48:35.837Z,2.10
2019-05-12T04:53:37.576Z,1.97
2019-05-12T04:58:40.906Z,1.90
2019-05-12T05:03:44.498Z,2.43
2019-05-12T05:08:47.865Z,1.87
2019-05-12T05:13:51.152Z,2.07
2019-05-12T05:18:54.493Z,1.53
2019-05-12T05:23:57.732Z,1.50
2019-05-12T05:29:01.022Z,1.30
2019-05-12T05:34:05.023Z,1.23
2019-05-12T05:39:08.466Z,1.00
2019-05-12T05:44:13.894Z,1.30
2019-05-12T05:49:16.767Z,0.90
2019-05-12T05:54:24.760Z,1.70
2019-05-12T05:59:31.151Z,1.37
2019-05-12T06:04:30.284Z,0.80
2019-05-12T06:09:34.006Z,1.23
2019-05-12T06:14:40.625Z,1.50
2019-05-12T06:19:43.774Z,1.00
2019-05-12T06:24:49.062Z,1.50
2019-05-12T06:30:00.801Z,1.62
2019-05-12T06:35:01.489Z,1.40
2019-05-12T06:40:05.269Z,1.40
2019-05-12T06:45:08.746Z,1.63
2019-05-12T06:50:14.535Z,1.87
2019-05-12T06:55:17.523Z,1.17
2019-05-12T07:00:22.364Z,1.50
2019-05-12T07:05:28.155Z,1.80
2019-05-12T07:10:39.564Z,1.10
2019-05-12T07:15:40.389Z,1.33
2019-05-12T07:20:43.403Z,1.47
2019-05-12T07:25:47.882Z,1.03
2019-05-12T07:30:54.339Z,1.50
2019-05-12T07:36:01.452Z,1.37
2019-05-12T07:41:06.757Z,0.90
2019-05-12T07:46:09.092Z,1.33
2019-05-12T07:51:13.753Z,1.13
2019-05-12T07:56:19.550Z,2.00
2019-05-12T08:01:23.602Z,2.20
2019-05-12T08:06:26.989Z,2.80
2019-05-12T08:11:36.647Z,1.70
2019-05-12T08:16:36.911Z,3.30
2019-05-12T08:21:43.750Z,3.33
2019-05-12T08:26:49.692Z,2.77
2019-05-12T08:31:50.441Z,3.00
2019-05-12T08:36:57.825Z,3.87
2019-05-12T08:41:58.767Z,3.37
2019-05-12T08:47:03.924Z,2.87
2019-05-12T08:52:07.063Z,3.47
2019-05-12T08:57:10.342Z,3.03
2019-05-12T09:02:13.939Z,3.80
2019-05-12T09:07:17.593Z,3.17
2019-05-12T09:12:23.177Z,3.50
2019-05-12T09:17:26.001Z,3.37
2019-05-12T09:22:29.360Z,3.30
2019-05-12T09:27:33.466Z,3.67
2019-05-12T09:32:39.082Z,4.50
2019-05-12T09:37:43.967Z,4.63
2019-05-12T09:42:47.008Z,3.77
2019-05-12T09:47:51.273Z,3.50
2019-05-12T09:52:55.602Z,4.27
2019-05-12T09:57:59.589Z,3.93
2019-05-12T10:03:04.831Z,4.53
2019-05-12T10:08:07.905Z,3.10
2019-05-12T10:13:13.666Z,3.33
2019-05-12T10:18:16.396Z,3.53
2019-05-12T10:23:24.146Z,3.60
2019-05-12T10:28:24.703Z,3.67
2019-05-12T10:33:27.998Z,3.17
2019-05-12T10:38:31.306Z,3.77
2019-05-12T10:43:34.591Z,3.03
2019-05-12T10:48:37.897Z,2.57
2019-05-12T10:53:43.141Z,3.77
2019-05-12T10:58:46.241Z,3.10
2019-05-12T11:03:50.737Z,2.77
2019-05-12T11:08:54.425Z,2.83
2019-05-12T11:13:57.718Z,2.80
2019-05-12T11:19:08.776Z,3.03
2019-05-12T11:24:06.051Z,2.70
2019-05-12T11:29:09.332Z,2.97
2019-05-12T11:34:12.629Z,2.90
2019-05-12T11:39:15.948Z,3.47
2019-05-12T11:44:19.242Z,2.40
2019-05-12T11:49:26.282Z,3.30
2019-05-12T11:54:28.087Z,2.70
2019-05-12T11:59:31.452Z,2.40
2019-05-12T12:04:39.339Z,2.50
2019-05-12T12:09:43.859Z,2.70
2019-05-12T12:14:50.426Z,2.27
2019-05-12T12:19:54.461Z,3.00
2019-05-12T12:25:03.179Z,2.60
2019-05-12T12:30:16.046Z,2.83
2019-05-12T12:35:11.875Z,2.70
2019-05-12T12:40:14.360Z,2.17
2019-05-12T12:45:30.455Z,2.07
2019-05-12T12:50:34.395Z,1.30
2019-05-12T12:55:42.914Z,1.60
2019-05-12T13:00:48.117Z,2.17
2019-05-12T13:05:47.797Z,1.87
2019-05-12T13:10:53.934Z,2.03
2019-05-12T13:15:56.197Z,2.33
2019-05-12T13:20:59.508Z,1.77
2019-05-12T13:26:04.327Z,1.98
2019-05-12T13:31:12.846Z,2.47
2019-05-12T13:36:13.641Z,3.00
2019-05-12T13:41:19.896Z,2.50
2019-05-12T13:46:23.917Z,2.03
2019-05-12T13:51:27.320Z,2.10
2019-05-12T13:56:35.244Z,1.60
2019-05-12T14:01:40.120Z,1.90
2019-05-12T14:06:40.713Z,1.57
2019-05-12T14:11:44.006Z,1.70
2019-05-12T14:16:53.567Z,1.30
2019-05-12T14:21:54.193Z,1.60
2019-05-12T14:26:57.374Z,1.43
2019-05-12T14:32:03.019Z,1.10
2019-05-12T14:37:10.217Z,1.30
2019-05-12T14:42:13.496Z,1.00
2019-05-12T14:47:19.286Z,1.10
2019-05-12T14:52:21.714Z,1.27
2019-05-12T14:57:29.428Z,1.47
2019-05-12T15:02:30.053Z,1.10
2019-05-12T15:07:33.348Z,0.50
2019-05-12T15:12:36.657Z,0.80
2019-05-12T15:17:39.957Z,0.80
2019-05-12T15:22:51.230Z,1.00
2019-05-12T15:27:48.587Z,0.77
2019-05-12T15:32:53.621Z,1.07
2019-05-12T15:37:56.942Z,0.80
2019-05-12T15:43:00.727Z,0.90
2019-05-12T15:48:05.265Z,1.00
2019-05-12T15:53:13.779Z,0.83
2019-05-12T15:58:14.314Z,0.97
2019-05-12T16:03:17.797Z,1.90
2019-05-12T16:08:21.174Z,1.00
2019-05-12T16:13:24.571Z,0.50
2019-05-12T16:18:27.854Z,1.00
2019-05-12T16:23:31.163Z,0.70
2019-05-12T16:28:34.462Z,1.00
2019-05-12T16:33:37.834Z,1.57
2019-05-12T16:38:41.255Z,0.83
2019-05-12T16:43:44.544Z,0.93
2019-05-12T16:48:53.494Z,0.87
2019-05-12T16:53:53.974Z,0.87
2019-05-12T16:58:57.418Z,0.80
2019-05-12T17:04:00.741Z,1.93
2019-05-12T17:09:06.951Z,1.20
2019-05-12T17:14:10.276Z,1.13
2019-05-12T17:19:15.459Z,0.60
2019-05-12T17:24:18.915Z,0.63
2019-05-12T17:29:24.196Z,0.80
2019-05-12T17:34:28.254Z,0.60
2019-05-12T17:39:35.787Z,1.00
2019-05-12T17:44:38.953Z,1.00
2019-05-12T17:49:43.638Z,0.93
2019-05-12T17:54:46.706Z,1.10
2019-05-12T17:59:49.997Z,1.00
2019-05-12T18:04:53.579Z,0.93
2019-05-12T18:10:00.579Z,1.43
2019-05-12T18:15:04.050Z,0.90
2019-05-12T18:20:08.430Z,1.30
2019-05-12T18:25:14.366Z,2.10
2019-05-12T18:30:19.200Z,1.67
2019-05-12T18:41:25.045Z,1.60
2019-05-12T18:46:28.403Z,1.20
2019-05-12T18:51:34.158Z,1.05
2019-05-12T18:56:36.664Z,1.30
2019-05-12T19:01:40.122Z,1.10
2019-05-12T19:06:43.924Z,1.43
2019-05-12T19:11:47.400Z,1.07
2019-05-12T19:16:50.677Z,1.07
2019-05-12T19:22:04.913Z,1.10
2019-05-12T19:27:00.969Z,1.53
2019-05-12T19:32:04.701Z,1.20
2019-05-12T19:37:08.047Z,1.47
2019-05-12T19:42:18.648Z,1.07
2019-05-12T19:47:21.269Z,1.60
2019-05-12T19:52:21.358Z,1.37
2019-05-12T19:57:26.241Z,1.37
2019-05-12T20:02:29.610Z,1.23
2019-05-12T20:07:33.864Z,1.40
2019-05-12T20:12:37.273Z,1.53
2019-05-12T20:17:40.553Z,0.90
2019-05-12T20:22:44.192Z,1.83
2019-05-12T20:27:47.517Z,1.60
2019-05-12T20:32:50.809Z,1.20
2019-05-12T20:37:57.343Z,1.77
2019-05-12T20:43:07.771Z,1.13
2019-05-12T20:48:04.415Z,1.40
2019-05-12T20:53:07.705Z,1.33
2019-05-12T20:58:13.465Z,1.30
2019-05-12T21:03:16.030Z,1.40
2019-05-12T21:08:19.329Z,1.50
2019-05-12T21:13:27.379Z,1.30
2019-05-12T21:18:27.637Z,1.23
2019-05-12T21:23:33.193Z,1.00
2019-05-12T21:28:40.614Z,1.67
2019-05-12T21:33:41.779Z,0.90
2019-05-12T21:38:45.105Z,1.13
2019-05-12T21:43:48.451Z,1.23
2019-05-12T21:48:53.158Z,1.00
2019-05-12T21:53:57.828Z,0.97
2019-05-12T21:59:03.610Z,0.97
2019-05-12T22:04:06.142Z,1.00
2019-05-12T22:09:09.445Z,0.83
2019-05-12T22:14:13.677Z,1.00
2019-05-12T22:19:17.113Z,1.20
2019-05-12T22:24:27.578Z,1.00
2019-05-12T22:29:29.973Z,0.70
2019-05-12T22:34:37.382Z,0.83
2019-05-12T22:39:35.608Z,1.00
2019-05-12T22:44:38.902Z,1.00
2019-05-12T22:49:44.252Z,0.90
2019-05-12T22:54:50.933Z,0.73
2019-05-12T22:59:53.187Z,0.57
2019-05-12T23:04:56.648Z,0.60
2019-05-12T23:10:00.466Z,1.17
2019-05-12T23:15:07.707Z,0.80
2019-05-12T23:20:13.543Z,0.62
2019-05-12T23:25:19.590Z,0.80
2019-05-12T23:30:23.992Z,0.70
2019-05-12T23:35:28.120Z,1.13
2019-05-12T23:40:31.241Z,1.03
2019-05-12T23:45:34.619Z,0.60
2019-05-12T23:50:37.899Z,1.17
2019-05-12T23:55:43.649Z,0.80
